Sumneytown, Pennsylvania
Current Conditions -  °F | °C
As of 12:35 AM on Sunday 26 Oct 2014 (Local Time) from KUKT Reporting Station
Overcast Overcast  
Wind Chill: 59°   Ceiling: 8500
Heat Index: 59°   Visibility: 10mi
Dew Point: 46°   Wind: 7mph
Humidity: 63%   Direction: 270°W
Pressure: 29.61"   Gusts: NA
Location:  40.33°N, 75.45°W
Report Text: KUKT 260435Z AUTO 27006KT 10SM BKN085 OVC090 15/08 A2961 RMK AO1
Loading
Personal Weather Stations






























Interactive Weather Map
Tropical Storm Tracking
New forecast layout! Learn more

10-Day Weather Forecast

Advertisements
Track Severe Weather on mobile